Weather Tapiola - Query any day since 2019-01-03

Current weather    Forecast

Date:     <-    scroll days    ->
day curves
Low temperature°C +12.204:30
High temperature°C +21.416:00
Low wind chill°C 11.204:30
Average temperature°C +16.6 
High wind speed (10 min) m/s 6.117:30
High gusts (10 min) m/s 11.217:30
Low R.H% 5917:00
High R.H% 9404:30
Day weather data as a table
Date Time Temp
°C
Chill
°C
Wind
m/s
Gusts
m/s
Hum
%
Precip
mm
Snow depth
2024-06-16 23:30:00 16.8  16.5  3.5 6.6 72 - 0
2024-06-16 23:00:00 16.7  16.4  3.3 7.8 72 - 0
2024-06-16 22:30:00 17.0  16.6  4.0 7.6 71 - 0
2024-06-16 22:00:00 17.0  16.7  3.6 6.1 73 - 0
2024-06-16 21:30:00 17.2  16.8  4.2 8.1 71 - 0
2024-06-16 21:00:00 17.5  17.2  4.2 8.8 69 - 0
2024-06-16 20:30:00 17.9  17.7  4.1 8.8 67 - 0
2024-06-16 20:00:00 18.2  17.9  4.6 8.5 66 - 0
2024-06-16 19:30:00 18.4  18.0  5.3 9.3 65 - 0
2024-06-16 19:00:00 19.3  19.3  4.5 9.3 62 - 0
2024-06-16 18:30:00 19.6  19.6  3.5 6.2 62 - 0
2024-06-16 18:00:00 19.3  19.3  3.3 7.7 60 - 0
2024-06-16 17:30:00 19.3  19.0  6.1 11.2 61 - 0
2024-06-16 17:00:00 20.6  ....  4.4 9.0 59 - 0
2024-06-16 16:00:00 21.4  ....  3.3 8.1 61 - 0
2024-06-16 15:30:00 19.9  19.9  4.7 8.4 64 - 0
2024-06-16 15:00:00 19.9  19.9  5.1 8.0 65 - 0
2024-06-16 14:30:00 19.6  19.6  5.2 8.8 64 - 0
2024-06-16 14:00:00 19.6  19.5  5.6 8.9 68 - 0
2024-06-16 13:30:00 19.8  19.8  4.1 6.8 65 - 0
2024-06-16 13:00:00 19.8  19.8  4.5 7.2 65 - 0
2024-06-16 12:30:00 19.4  19.4  4.9 8.0 65 - 0
2024-06-16 12:00:00 18.5  18.1  5.5 8.5 69 - 0
2024-06-16 11:30:00 18.4  18.4  3.5 6.6 70 - 0
2024-06-16 11:00:00 17.7  17.2  5.2 8.5 70 - 0
2024-06-16 10:30:00 16.8  16.0  5.4 8.5 72 - 0
2024-06-16 10:00:00 16.4  15.5  5.4 8.0 74 - 0
2024-06-16 09:30:00 16.1  15.5  4.1 6.4 76 - 0
2024-06-16 09:00:00 15.7  15.3  3.1 5.5 78 - 0
2024-06-16 08:30:00 16.0  15.2  4.5 7.4 75 - 0
2024-06-16 08:00:00 15.3  14.7  3.5 6.2 79 - 0
2024-06-16 07:30:00 15.2  14.8  2.8 5.1 78 - 0
2024-06-16 07:00:00 14.3  13.6  3.1 5.4 82 - 0
2024-06-16 06:30:00 13.6  12.9  2.8 5.2 85 - 0
2024-06-16 06:00:00 13.7  12.9  3.0 5.1 87 - 0
2024-06-16 05:30:00 13.6  12.5  3.8 5.9 88 - 0
2024-06-16 05:00:00 12.6  11.5  3.3 5.2 93 - 0
2024-06-16 04:30:00 12.2  11.2  2.9 4.5 94 - 0
2024-06-16 04:00:00 12.6  11.8  2.6 3.8 92 - 0
2024-06-16 03:30:00 13.0  12.3  2.6 4.2 89 - 0
2024-06-16 03:00:00 13.4  12.4  3.3 4.9 87 - 0
2024-06-16 02:30:00 13.7  12.6  3.8 6.6 84 - 0
2024-06-16 02:00:00 13.8  13.1  2.9 6.6 81 - 0
2024-06-16 01:30:00 13.5  12.6  3.2 5.3 80 - 0
2024-06-16 01:00:00 13.3  12.2  3.5 5.8 79 - 0
2024-06-16 00:30:00 12.5  11.5  3.1 5.5 83 - 0
2024-06-16 00:00:00 12.4  11.6  2.6 4.3 85 - 0